Time;durP1;ratioP1;P1;durP2;ratioP2;P2;SDS_P1;SDS_P2;PMS_P1;PMS_P2;Temp;Humidity;BMP_temperature;BMP_pressure;BME280_temperature;BME280_humidity;BME280_pressure;Samples;Min_cycle;Max_cycle;Signal;HPM_P1;HPM_P2
2023/06/29 00:01:44;;;;;;;;;;;20.20;68.70;;;;;;5011680;28;87339;-42
2023/06/29 00:04:09;;;;;;;;;;;20.20;68.60;;;;;;5011274;28;87077;-43
2023/06/29 00:06:37;;;;;;;;;;;20.20;68.70;;;;;;5011100;28;87297;-42
2023/06/29 00:09:04;;;;;;;;;;;20.20;68.70;;;;;;5009970;28;88101;-43
2023/06/29 00:11:30;;;;;;;;;;;20.20;68.70;;;;;;5014337;28;86990;-42
2023/06/29 00:13:55;;;;;;;;;;;20.10;68.70;;;;;;5010607;28;87963;-43
2023/06/29 00:16:22;;;;;;;;;;;20.10;68.70;;;;;;5015396;28;87149;-45
2023/06/29 00:18:49;;;;;;;;;;;20.20;68.80;;;;;;5013954;28;88867;-43
2023/06/29 00:21:15;;;;;;;;;;;20.10;68.70;;;;;;5013017;28;88557;-43
2023/06/29 00:23:41;;;;;;;;;;;20.10;68.70;;;;;;5015041;28;87119;-45
2023/06/29 00:26:06;;;;;;;;;;;20.10;68.70;;;;;;5014257;28;87426;-42
2023/06/29 00:28:32;;;;;;;;;;;20.10;68.80;;;;;;5015625;28;87967;-44
2023/06/29 00:30:57;;;;;;;;;;;20.10;68.80;;;;;;5016092;28;87130;-43
2023/06/29 00:33:23;;;;;;;;;;;20.00;68.80;;;;;;5015330;28;89518;-42
2023/06/29 00:35:48;;;;;;;;;;;20.00;68.80;;;;;;5012977;28;87071;-44
2023/06/29 00:38:14;;;;;;;;;;;20.00;68.80;;;;;;5012473;28;87189;-43
2023/06/29 00:40:39;;;;;;;;;;;20.00;68.90;;;;;;5015344;28;88447;-43
2023/06/29 00:43:05;;;;;;;;;;;20.00;68.90;;;;;;5012844;28;87276;-43
2023/06/29 00:45:31;;;;;;;;;;;20.00;68.90;;;;;;5015645;28;87006;-44
2023/06/29 00:47:57;;;;;;;;;;;20.00;68.80;;;;;;5013002;28;87754;-43
2023/06/29 00:50:22;;;;;;;;;;;19.90;69.40;;;;;;5011518;28;86323;-42
2023/06/29 00:52:48;;;;;;;;;;;19.90;68.90;;;;;;5015971;28;88157;-44
2023/06/29 00:55:13;;;;;;;;;;;19.90;68.90;;;;;;5013221;28;87147;-42
2023/06/29 00:57:39;;;;;;;;;;;19.90;68.90;;;;;;5013351;28;88014;-43
2023/06/29 01:00:10;;;;;;;;;;;19.90;68.90;;;;;;5012544;28;89649;-43
2023/06/29 01:02:40;;;;;;;;;;;19.90;68.90;;;;;;5013856;28;87534;-43
2023/06/29 01:05:09;;;;;;;;;;;19.90;68.90;;;;;;5012010;28;87310;-43
2023/06/29 01:07:35;;;;;;;;;;;19.90;68.90;;;;;;5010117;28;89455;-42
2023/06/29 01:10:01;;;;;;;;;;;19.90;69.00;;;;;;5014278;28;87162;-43
2023/06/29 01:12:26;;;;;;;;;;;19.80;69.00;;;;;;5012477;28;87421;-43
2023/06/29 01:14:54;;;;;;;;;;;19.80;69.10;;;;;;5016923;28;87645;-43
2023/06/29 01:17:20;;;;;;;;;;;19.80;69.10;;;;;;5012495;28;87062;-42
2023/06/29 01:19:47;;;;;;;;;;;19.80;69.00;;;;;;5013942;28;87992;-43
2023/06/29 01:22:19;;;;;;;;;;;19.80;69.00;;;;;;5010229;28;88123;-43
2023/06/29 01:24:45;;;;;;;;;;;19.80;69.10;;;;;;5012140;28;88324;-43
2023/06/29 01:27:13;;;;;;;;;;;19.70;69.00;;;;;;5014442;28;88230;-42
2023/06/29 01:29:39;;;;;;;;;;;19.70;69.00;;;;;;5012019;28;87075;-43
2023/06/29 01:32:07;;;;;;;;;;;19.70;69.00;;;;;;5015077;28;87344;-43
2023/06/29 01:34:34;;;;;;;;;;;19.70;69.00;;;;;;5011582;28;89194;-42
2023/06/29 01:37:08;;;;;;;;;;;19.70;69.00;;;;;;5013978;28;88285;-44
2023/06/29 01:39:39;;;;;;;;;;;19.70;69.00;;;;;;5008718;28;87315;-42
2023/06/29 01:42:06;;;;;;;;;;;19.70;69.00;;;;;;5010141;28;87145;-43
2023/06/29 01:44:31;;;;;;;;;;;19.70;69.10;;;;;;5010818;28;90249;-42
2023/06/29 01:46:57;;;;;;;;;;;19.70;69.10;;;;;;5013853;28;88830;-43
2023/06/29 01:49:23;;;;;;;;;;;19.70;69.20;;;;;;5011712;28;87174;-42
2023/06/29 01:51:48;;;;;;;;;;;19.60;69.20;;;;;;5012707;28;87528;-42
2023/06/29 01:54:14;;;;;;;;;;;19.60;69.10;;;;;;5015008;28;88209;-43
2023/06/29 01:56:39;;;;;;;;;;;19.60;69.10;;;;;;5011335;28;87229;-45
2023/06/29 01:59:05;;;;;;;;;;;19.70;69.00;;;;;;5017408;28;87601;-42
2023/06/29 02:01:30;;;;;;;;;;;19.60;69.10;;;;;;5010453;28;87492;-42
2023/06/29 02:03:56;;;;;;;;;;;19.60;69.10;;;;;;5014701;28;87323;-42
2023/06/29 02:06:21;;;;;;;;;;;19.60;69.10;;;;;;5011658;28;88975;-42
2023/06/29 02:08:48;;;;;;;;;;;19.60;69.10;;;;;;5012124;28;87367;-44
2023/06/29 02:11:13;;;;;;;;;;;19.60;69.10;;;;;;5013244;28;88128;-42
2023/06/29 02:13:39;;;;;;;;;;;19.50;69.00;;;;;;5012244;28;88209;-42
2023/06/29 02:16:04;;;;;;;;;;;19.50;69.10;;;;;;5013221;28;86919;-43
2023/06/29 02:18:31;;;;;;;;;;;19.60;69.20;;;;;;5015602;28;87451;-46
2023/06/29 02:20:56;;;;;;;;;;;19.50;69.10;;;;;;5011825;28;86992;-43
2023/06/29 02:23:22;;;;;;;;;;;19.50;69.10;;;;;;5011938;28;88084;-42
2023/06/29 02:25:47;;;;;;;;;;;19.50;69.20;;;;;;5012970;28;87339;-43
2023/06/29 02:28:13;;;;;;;;;;;19.50;69.10;;;;;;5012664;28;86394;-42
2023/06/29 02:30:38;;;;;;;;;;;19.50;69.10;;;;;;5013674;28;87010;-42
2023/06/29 02:33:04;;;;;;;;;;;19.50;69.10;;;;;;5010773;28;89602;-42
2023/06/29 02:35:29;;;;;;;;;;;19.50;69.20;;;;;;5011973;28;87952;-44
2023/06/29 02:37:55;;;;;;;;;;;19.40;69.10;;;;;;5009966;28;88517;-42
2023/06/29 02:40:20;;;;;;;;;;;19.40;69.10;;;;;;5012909;28;87924;-42
2023/06/29 02:42:46;;;;;;;;;;;19.40;69.10;;;;;;5014611;28;87670;-42
2023/06/29 02:45:11;;;;;;;;;;;19.40;69.20;;;;;;5010524;28;87062;-43
2023/06/29 02:47:37;;;;;;;;;;;19.40;69.30;;;;;;5014111;28;87172;-42
2023/06/29 02:50:02;;;;;;;;;;;19.40;69.30;;;;;;5011060;28;87710;-42
2023/06/29 02:52:28;;;;;;;;;;;19.30;69.30;;;;;;5010160;28;87466;-42
2023/06/29 02:54:53;;;;;;;;;;;19.30;69.20;;;;;;5013559;28;87096;-42
2023/06/29 02:57:19;;;;;;;;;;;19.30;69.20;;;;;;5011706;28;87497;-42
2023/06/29 02:59:44;;;;;;;;;;;19.30;69.30;;;;;;5011924;28;89012;-42
2023/06/29 03:02:10;;;;;;;;;;;19.30;69.30;;;;;;5014637;28;87109;-42
2023/06/29 03:04:35;;;;;;;;;;;19.30;69.20;;;;;;5012000;28;87303;-42
2023/06/29 03:07:01;;;;;;;;;;;19.30;69.10;;;;;;5006231;28;87122;-42
2023/06/29 03:09:26;;;;;;;;;;;19.20;69.20;;;;;;5012647;28;87520;-42
2023/06/29 03:11:52;;;;;;;;;;;19.20;69.20;;;;;;5011312;28;88168;-42
2023/06/29 03:14:17;;;;;;;;;;;19.30;69.20;;;;;;5012570;28;87118;-43
2023/06/29 03:16:43;;;;;;;;;;;19.20;69.30;;;;;;5011722;28;87171;-43
2023/06/29 03:19:08;;;;;;;;;;;19.20;69.20;;;;;;5012770;28;87555;-43
2023/06/29 03:21:34;;;;;;;;;;;19.20;69.20;;;;;;5009956;28;87140;-42
2023/06/29 03:23:59;;;;;;;;;;;19.20;69.20;;;;;;5015517;28;88229;-42
2023/06/29 03:26:25;;;;;;;;;;;19.20;69.30;;;;;;5010084;28;87176;-43
2023/06/29 03:28:50;;;;;;;;;;;19.20;69.20;;;;;;5013743;28;88079;-42
2023/06/29 03:31:16;;;;;;;;;;;19.20;69.30;;;;;;5009824;28;88068;-42
2023/06/29 03:33:42;;;;;;;;;;;19.20;69.30;;;;;;5013102;28;87146;-42
2023/06/29 03:36:11;;;;;;;;;;;19.20;69.30;;;;;;5010196;28;87534;-43
2023/06/29 03:38:36;;;;;;;;;;;19.10;69.30;;;;;;5010868;28;89557;-43
2023/06/29 03:41:02;;;;;;;;;;;19.10;69.20;;;;;;5013294;28;86558;-42
2023/06/29 03:43:27;;;;;;;;;;;19.10;69.20;;;;;;5010665;28;86971;-43
2023/06/29 03:45:53;;;;;;;;;;;19.10;69.20;;;;;;5015186;28;88935;-42
2023/06/29 03:48:20;;;;;;;;;;;19.10;69.30;;;;;;5010279;28;88050;-42
2023/06/29 03:50:46;;;;;;;;;;;19.10;69.30;;;;;;5014447;28;88209;-43
2023/06/29 03:53:11;;;;;;;;;;;19.00;69.50;;;;;;5013633;28;87141;-43
2023/06/29 03:55:37;;;;;;;;;;;19.00;69.20;;;;;;5014870;28;88157;-43
2023/06/29 03:58:02;;;;;;;;;;;19.10;69.30;;;;;;5014999;28;88174;-42
2023/06/29 04:00:28;;;;;;;;;;;19.00;69.20;;;;;;5015173;28;87023;-43
2023/06/29 04:02:53;;;;;;;;;;;19.00;69.20;;;;;;5014450;28;88786;-43
2023/06/29 04:05:19;;;;;;;;;;;19.00;69.30;;;;;;5015863;28;87447;-43
2023/06/29 04:07:44;;;;;;;;;;;19.00;69.90;;;;;;5016085;28;87172;-46
2023/06/29 04:10:10;;;;;;;;;;;19.00;69.20;;;;;;5013449;28;88260;-44
2023/06/29 04:12:35;;;;;;;;;;;19.00;69.20;;;;;;5015375;28;88545;-43
2023/06/29 04:15:00;;;;;;;;;;;19.00;69.30;;;;;;5013523;28;88624;-44
2023/06/29 04:17:26;;;;;;;;;;;19.00;69.20;;;;;;5016139;28;88224;-43
2023/06/29 04:19:51;;;;;;;;;;;19.00;69.20;;;;;;5012969;28;87176;-46
2023/06/29 04:22:17;;;;;;;;;;;19.00;69.20;;;;;;5012477;28;87563;-46
2023/06/29 04:24:43;;;;;;;;;;;19.00;69.20;;;;;;5015784;28;88286;-45
2023/06/29 04:27:10;;;;;;;;;;;19.00;69.20;;;;;;5016146;28;87198;-46
2023/06/29 04:29:35;;;;;;;;;;;19.00;69.30;;;;;;5016458;28;87451;-42
2023/06/29 04:32:01;;;;;;;;;;;18.90;69.20;;;;;;5013348;28;87280;-42
2023/06/29 04:34:26;;;;;;;;;;;18.90;69.30;;;;;;5015622;28;87587;-42
2023/06/29 04:36:56;;;;;;;;;;;18.90;69.20;;;;;;5012705;28;88571;-42
2023/06/29 04:39:21;;;;;;;;;;;18.90;69.20;;;;;;5011739;28;87048;-42
2023/06/29 04:41:47;;;;;;;;;;;18.90;69.20;;;;;;5015493;28;87379;-43
2023/06/29 04:44:12;;;;;;;;;;;18.90;69.30;;;;;;5013125;28;88063;-42
2023/06/29 04:46:39;;;;;;;;;;;18.90;69.30;;;;;;5014920;28;87022;-42
2023/06/29 04:49:07;;;;;;;;;;;18.90;69.20;;;;;;5015930;28;88766;-43
2023/06/29 04:51:36;;;;;;;;;;;18.90;69.30;;;;;;5014861;28;87075;-42
2023/06/29 04:54:02;;;;;;;;;;;18.90;69.20;;;;;;5011831;28;86991;-42
2023/06/29 04:56:28;;;;;;;;;;;18.90;69.20;;;;;;5012676;28;89358;-43
2023/06/29 04:58:53;;;;;;;;;;;18.80;69.20;;;;;;5014560;28;86987;-43
2023/06/29 05:01:19;;;;;;;;;;;18.80;69.10;;;;;;5012278;28;88131;-44
2023/06/29 05:03:44;;;;;;;;;;;18.90;69.20;;;;;;5013268;28;88138;-43
2023/06/29 05:06:10;;;;;;;;;;;18.80;69.10;;;;;;5014127;28;87242;-42
2023/06/29 05:08:35;;;;;;;;;;;18.80;69.30;;;;;;5013381;28;87746;-44
2023/06/29 05:11:01;;;;;;;;;;;18.80;69.30;;;;;;5016598;28;87139;-42
2023/06/29 05:13:27;;;;;;;;;;;18.80;69.40;;;;;;5013007;28;89103;-43
2023/06/29 05:15:52;;;;;;;;;;;18.80;69.40;;;;;;5014138;28;88201;-42
2023/06/29 05:18:18;;;;;;;;;;;18.80;69.50;;;;;;5012906;28;86403;-42
2023/06/29 05:20:43;;;;;;;;;;;18.80;69.40;;;;;;5015356;28;87122;-42
2023/06/29 05:23:11;;;;;;;;;;;18.80;69.40;;;;;;5012665;28;88013;-42
2023/06/29 05:25:36;;;;;;;;;;;18.80;69.40;;;;;;5011588;28;88027;-43
2023/06/29 05:28:02;;;;;;;;;;;18.80;69.40;;;;;;5014980;28;89831;-43
2023/06/29 05:30:28;;;;;;;;;;;18.80;69.40;;;;;;5011222;28;89645;-43
2023/06/29 05:32:53;;;;;;;;;;;18.80;69.40;;;;;;5018312;28;86951;-44
2023/06/29 05:35:19;;;;;;;;;;;18.80;69.40;;;;;;5011338;28;88226;-42
2023/06/29 05:37:45;;;;;;;;;;;18.80;69.30;;;;;;5012266;28;87085;-43
2023/06/29 05:40:11;;;;;;;;;;;18.80;69.90;;;;;;5014589;28;86912;-42
2023/06/29 05:42:37;;;;;;;;;;;18.80;69.40;;;;;;5012304;28;87533;-43
2023/06/29 05:45:03;;;;;;;;;;;18.80;69.40;;;;;;5014697;28;87214;-42
2023/06/29 05:47:28;;;;;;;;;;;18.80;69.40;;;;;;5012452;28;87590;-42
2023/06/29 05:49:54;;;;;;;;;;;18.80;69.40;;;;;;5013226;28;89452;-43
2023/06/29 05:52:19;;;;;;;;;;;18.80;69.40;;;;;;5012912;28;87005;-42
2023/06/29 05:54:44;;;;;;;;;;;18.80;69.40;;;;;;5014331;28;87137;-43
2023/06/29 05:57:10;;;;;;;;;;;18.80;69.40;;;;;;5013190;28;87163;-43
2023/06/29 05:59:36;;;;;;;;;;;18.80;69.40;;;;;;5013365;28;87470;-47
2023/06/29 06:02:02;;;;;;;;;;;18.80;69.40;;;;;;5012616;28;88571;-44
2023/06/29 06:04:27;;;;;;;;;;;18.80;69.50;;;;;;5013253;28;87128;-43
2023/06/29 06:06:53;;;;;;;;;;;18.80;69.40;;;;;;5012869;28;87570;-43
2023/06/29 06:09:18;;;;;;;;;;;18.80;69.40;;;;;;5009913;28;87985;-43
2023/06/29 06:11:44;;;;;;;;;;;18.80;69.50;;;;;;5013699;28;87269;-43
2023/06/29 06:14:09;;;;;;;;;;;18.80;69.50;;;;;;5010786;28;87960;-43
2023/06/29 06:16:35;;;;;;;;;;;18.80;69.60;;;;;;5017043;28;87333;-42
2023/06/29 06:19:00;;;;;;;;;;;18.80;69.50;;;;;;5010745;28;87458;-43
2023/06/29 06:21:26;;;;;;;;;;;18.80;69.60;;;;;;5014085;28;88571;-43
2023/06/29 06:23:53;;;;;;;;;;;18.80;69.60;;;;;;5005304;28;87903;-42
2023/06/29 06:26:18;;;;;;;;;;;18.80;70.20;;;;;;5006652;28;87513;-43
2023/06/29 06:28:44;;;;;;;;;;;18.80;69.70;;;;;;5014128;28;88301;-43
2023/06/29 06:31:09;;;;;;;;;;;18.80;69.60;;;;;;5010071;28;86540;-42
2023/06/29 06:33:35;;;;;;;;;;;18.80;69.50;;;;;;5011997;28;87915;-42
2023/06/29 06:36:00;;;;;;;;;;;18.80;69.60;;;;;;5012627;28;89377;-43
2023/06/29 06:38:26;;;;;;;;;;;18.80;69.60;;;;;;5008155;28;88542;-42
2023/06/29 06:40:51;;;;;;;;;;;18.80;69.70;;;;;;5010961;28;91089;-46
2023/06/29 06:43:17;;;;;;;;;;;18.80;69.60;;;;;;5010841;28;87170;-44
2023/06/29 06:45:43;;;;;;;;;;;18.80;69.80;;;;;;5011528;28;87419;-42
2023/06/29 06:48:09;;;;;;;;;;;18.80;70.20;;;;;;5010463;28;87446;-43
2023/06/29 06:50:34;;;;;;;;;;;18.80;69.60;;;;;;5011032;28;87170;-44
2023/06/29 06:53:00;;;;;;;;;;;18.80;69.60;;;;;;5011358;28;87474;-42
2023/06/29 06:55:26;;;;;;;;;;;18.80;69.60;;;;;;5010113;28;87383;-44
2023/06/29 06:57:51;;;;;;;;;;;18.80;69.70;;;;;;5014724;28;87142;-43
2023/06/29 07:00:17;;;;;;;;;;;18.80;69.70;;;;;;5009124;28;89418;-42
2023/06/29 07:02:43;;;;;;;;;;;18.80;69.70;;;;;;5010688;28;88065;-45
2023/06/29 07:05:08;;;;;;;;;;;18.80;69.80;;;;;;5009272;28;88279;-42
2023/06/29 07:07:34;;;;;;;;;;;18.80;69.80;;;;;;5011364;28;89468;-42
2023/06/29 07:10:00;;;;;;;;;;;18.80;69.90;;;;;;5009854;28;87522;-43
2023/06/29 07:12:25;;;;;;;;;;;18.80;69.90;;;;;;5008868;28;88822;-43
2023/06/29 07:14:51;;;;;;;;;;;18.80;69.80;;;;;;5005017;28;89671;-44
2023/06/29 07:17:17;;;;;;;;;;;18.80;69.80;;;;;;5012855;28;87205;-43
2023/06/29 07:19:43;;;;;;;;;;;18.80;69.90;;;;;;5013097;28;88155;-42
2023/06/29 07:22:08;;;;;;;;;;;18.80;69.80;;;;;;5013279;28;87192;-43
2023/06/29 07:24:34;;;;;;;;;;;18.80;69.80;;;;;;5009857;28;87545;-42
2023/06/29 07:26:59;;;;;;;;;;;18.80;69.70;;;;;;5011775;28;89504;-46
2023/06/29 07:29:26;;;;;;;;;;;18.80;69.60;;;;;;5010862;28;87133;-45
2023/06/29 07:31:52;;;;;;;;;;;18.80;69.70;;;;;;5012456;28;88163;-44
2023/06/29 07:34:22;;;;;;;;;;;18.80;69.70;;;;;;5010119;28;88117;-44
2023/06/29 07:36:48;;;;;;;;;;;18.80;69.60;;;;;;5011979;28;87862;-45
2023/06/29 07:39:13;;;;;;;;;;;18.80;69.70;;;;;;5009142;28;87494;-45
2023/06/29 07:41:39;;;;;;;;;;;18.80;69.70;;;;;;5013689;28;87357;-44
2023/06/29 07:44:04;;;;;;;;;;;18.80;69.60;;;;;;5012926;28;87215;-43
2023/06/29 07:46:31;;;;;;;;;;;18.80;69.70;;;;;;5010928;28;88862;-44
2023/06/29 07:48:58;;;;;;;;;;;18.80;69.70;;;;;;5010803;28;87092;-43
2023/06/29 07:51:24;;;;;;;;;;;18.80;69.70;;;;;;5009542;28;87949;-44
2023/06/29 07:53:51;;;;;;;;;;;18.80;69.70;;;;;;5008623;28;88127;-48
2023/06/29 07:56:17;;;;;;;;;;;18.80;69.70;;;;;;5011314;28;87561;-43
2023/06/29 07:58:42;;;;;;;;;;;18.80;69.70;;;;;;5011691;28;88684;-43
2023/06/29 08:01:07;;;;;;;;;;;18.80;69.60;;;;;;5010749;28;87417;-47
2023/06/29 08:03:33;;;;;;;;;;;18.80;69.60;;;;;;5015006;28;87149;-45
2023/06/29 08:05:59;;;;;;;;;;;18.80;69.60;;;;;;5010283;28;88224;-45
2023/06/29 08:08:28;;;;;;;;;;;18.80;69.50;;;;;;5012840;28;86376;-48
2023/06/29 08:10:54;;;;;;;;;;;18.90;69.60;;;;;;5008770;28;88292;-47
2023/06/29 08:13:20;;;;;;;;;;;18.90;69.60;;;;;;5010234;28;88183;-48
2023/06/29 08:15:45;;;;;;;;;;;18.90;69.60;;;;;;5011999;28;88593;-45
2023/06/29 08:18:11;;;;;;;;;;;18.90;69.60;;;;;;5009896;28;88411;-46
2023/06/29 08:20:36;;;;;;;;;;;18.90;69.60;;;;;;5012586;28;88473;-47
2023/06/29 08:23:02;;;;;;;;;;;18.90;69.60;;;;;;5009510;28;87215;-48
2023/06/29 08:25:27;;;;;;;;;;;18.90;69.50;;;;;;5010838;28;87188;-48
2023/06/29 08:27:53;;;;;;;;;;;18.90;69.50;;;;;;5013153;28;87316;-45
2023/06/29 08:30:18;;;;;;;;;;;18.90;69.50;;;;;;5009340;28;88873;-43
2023/06/29 08:32:47;;;;;;;;;;;18.90;69.60;;;;;;5011645;28;87110;-45
2023/06/29 08:35:13;;;;;;;;;;;18.90;69.60;;;;;;5009331;28;87230;-43
2023/06/29 08:37:39;;;;;;;;;;;18.90;69.60;;;;;;5016156;28;87582;-43
2023/06/29 08:40:05;;;;;;;;;;;18.90;69.50;;;;;;5011051;28;89515;-45
2023/06/29 08:42:31;;;;;;;;;;;18.90;69.50;;;;;;5015479;28;87045;-43
2023/06/29 08:44:56;;;;;;;;;;;19.00;69.60;;;;;;5015110;28;88781;-43
2023/06/29 08:47:23;;;;;;;;;;;18.90;69.60;;;;;;5015153;28;87105;-43
2023/06/29 08:49:48;;;;;;;;;;;18.90;69.60;;;;;;5013376;28;87517;-43
2023/06/29 08:52:18;;;;;;;;;;;18.90;69.50;;;;;;5014209;28;89405;-43
2023/06/29 08:54:44;;;;;;;;;;;19.00;69.60;;;;;;5012681;28;87129;-43
2023/06/29 08:57:10;;;;;;;;;;;19.00;69.60;;;;;;5013286;28;86700;-42
2023/06/29 08:59:38;;;;;;;;;;;18.90;69.60;;;;;;5014073;28;89669;-43
2023/06/29 09:02:05;;;;;;;;;;;18.90;69.50;;;;;;5012893;28;87241;-43
2023/06/29 09:04:30;;;;;;;;;;;18.90;69.50;;;;;;5012747;28;88506;-43
2023/06/29 09:06:56;;;;;;;;;;;18.90;69.60;;;;;;5015873;28;88141;-43
2023/06/29 09:09:22;;;;;;;;;;;19.00;69.60;;;;;;5013210;28;87646;-45
2023/06/29 09:11:47;;;;;;;;;;;19.00;69.50;;;;;;5011485;28;87758;-43
2023/06/29 09:14:13;;;;;;;;;;;19.00;69.60;;;;;;5014023;28;87166;-44
2023/06/29 09:16:52;;;;;;;;;;;19.00;69.50;;;;;;5013292;28;87557;-43
2023/06/29 09:19:18;;;;;;;;;;;19.00;69.40;;;;;;5011973;28;89209;-42
2023/06/29 09:21:45;;;;;;;;;;;19.00;69.50;;;;;;5015582;28;86615;-43
2023/06/29 09:24:11;;;;;;;;;;;19.00;69.40;;;;;;5012394;28;87012;-43
2023/06/29 09:26:36;;;;;;;;;;;19.00;69.40;;;;;;5011113;28;87118;-43
2023/06/29 09:29:03;;;;;;;;;;;19.00;69.40;;;;;;5016839;28;88048;-44
2023/06/29 09:31:32;;;;;;;;;;;19.00;69.40;;;;;;5012203;28;89405;-44
2023/06/29 09:34:17;;;;;;;;;;;19.00;69.30;;;;;;5014500;28;87021;-44
2023/06/29 09:36:43;;;;;;;;;;;19.10;69.30;;;;;;5010319;28;88934;-43
2023/06/29 09:39:09;;;;;;;;;;;19.00;69.20;;;;;;5014369;28;87122;-42
2023/06/29 09:41:46;;;;;;;;;;;19.10;69.30;;;;;;5010100;28;87193;-43
2023/06/29 09:44:21;;;;;;;;;;;19.10;69.20;;;;;;5013903;28;87630;-43
2023/06/29 09:46:47;;;;;;;;;;;19.10;69.10;;;;;;5011385;28;87218;-43
2023/06/29 09:49:14;;;;;;;;;;;19.10;69.20;;;;;;5014554;28;87295;-43
2023/06/29 09:51:39;;;;;;;;;;;19.10;69.20;;;;;;5014497;28;88673;-44
2023/06/29 09:54:09;;;;;;;;;;;19.10;69.30;;;;;;5013904;28;88031;-43
2023/06/29 09:56:36;;;;;;;;;;;19.10;69.40;;;;;;5010230;28;88531;-43
2023/06/29 09:59:02;;;;;;;;;;;19.10;69.20;;;;;;5011510;28;88067;-45
2023/06/29 10:01:28;;;;;;;;;;;19.10;69.10;;;;;;5014589;28;87045;-43
2023/06/29 10:03:54;;;;;;;;;;;19.10;69.00;;;;;;5011714;28;87435;-43
2023/06/29 10:06:21;;;;;;;;;;;19.20;69.10;;;;;;5013879;28;88080;-43
2023/06/29 10:08:50;;;;;;;;;;;19.10;68.80;;;;;;5011647;28;87133;-43
2023/06/29 10:11:16;;;;;;;;;;;19.10;69.00;;;;;;5007147;28;86707;-45
2023/06/29 10:13:45;;;;;;;;;;;19.10;69.00;;;;;;5016544;28;88360;-43
2023/06/29 10:16:12;;;;;;;;;;;19.20;69.00;;;;;;5011720;28;87382;-43
2023/06/29 10:18:40;;;;;;;;;;;19.20;69.00;;;;;;5013194;28;90233;-42
2023/06/29 10:21:06;;;;;;;;;;;19.20;69.10;;;;;;5011102;28;87292;-43
2023/06/29 10:23:32;;;;;;;;;;;19.20;69.20;;;;;;5014294;28;87625;-43
2023/06/29 10:26:00;;;;;;;;;;;19.10;69.20;;;;;;5010535;28;88293;-43
2023/06/29 10:28:25;;;;;;;;;;;19.20;69.30;;;;;;5013997;28;87207;-42
2023/06/29 10:30:56;;;;;;;;;;;19.20;69.20;;;;;;5011890;28;87398;-44
2023/06/29 10:33:22;;;;;;;;;;;19.20;69.10;;;;;;5014243;28;88269;-42
2023/06/29 10:35:53;;;;;;;;;;;19.30;69.00;;;;;;5014479;28;86433;-44
2023/06/29 10:38:19;;;;;;;;;;;19.30;68.90;;;;;;5006382;28;88241;-43
2023/06/29 10:40:48;;;;;;;;;;;19.30;69.00;;;;;;5013425;28;87216;-43
2023/06/29 10:43:14;;;;;;;;;;;19.30;69.10;;;;;;5006385;28;87932;-43
2023/06/29 10:45:40;;;;;;;;;;;19.20;69.20;;;;;;5006429;28;88016;-42
2023/06/29 10:48:07;;;;;;;;;;;19.30;69.20;;;;;;5013741;28;87481;-43
2023/06/29 10:50:35;;;;;;;;;;;19.30;69.10;;;;;;5010876;28;87396;-42
2023/06/29 10:53:03;;;;;;;;;;;19.30;69.10;;;;;;5006431;28;88107;-43
2023/06/29 10:55:37;;;;;;;;;;;19.30;69.10;;;;;;5008840;28;87134;-43
2023/06/29 10:58:13;;;;;;;;;;;19.30;68.90;;;;;;5008023;28;88121;-43
2023/06/29 11:00:39;;;;;;;;;;;19.40;68.80;;;;;;5012337;28;86482;-43
2023/06/29 11:03:05;;;;;;;;;;;19.40;68.70;;;;;;5012484;28;86993;-44
2023/06/29 11:05:32;;;;;;;;;;;19.40;68.90;;;;;;5012343;28;87972;-43
2023/06/29 11:07:58;;;;;;;;;;;19.40;68.80;;;;;;5011412;28;88064;-43
2023/06/29 11:10:23;;;;;;;;;;;19.40;68.80;;;;;;5012038;28;88364;-42
2023/06/29 11:12:50;;;;;;;;;;;19.40;68.90;;;;;;5009705;28;90219;-43
2023/06/29 11:15:16;;;;;;;;;;;19.40;68.90;;;;;;5012645;28;87051;-43
2023/06/29 11:17:42;;;;;;;;;;;19.40;68.80;;;;;;5013901;28;87652;-45
2023/06/29 11:20:14;;;;;;;;;;;19.50;68.80;;;;;;5012884;28;87186;-45
2023/06/29 11:22:41;;;;;;;;;;;19.50;68.80;;;;;;5011962;28;87539;-45
2023/06/29 11:25:07;;;;;;;;;;;19.50;68.80;;;;;;5012162;28;87285;-42
2023/06/29 11:27:33;;;;;;;;;;;19.50;68.90;;;;;;5009399;28;87344;-44
2023/06/29 11:29:59;;;;;;;;;;;19.50;68.90;;;;;;5011300;28;87676;-43
2023/06/29 11:32:27;;;;;;;;;;;19.50;69.00;;;;;;5011498;28;89336;-44
2023/06/29 11:34:56;;;;;;;;;;;19.50;69.00;;;;;;5011287;28;87110;-43
2023/06/29 11:37:22;;;;;;;;;;;19.50;68.90;;;;;;5011915;28;89111;-43
2023/06/29 11:39:49;;;;;;;;;;;19.50;68.80;;;;;;5013530;28;89331;-43
2023/06/29 11:42:16;;;;;;;;;;;19.50;68.70;;;;;;5008644;28;87880;-44
2023/06/29 11:44:42;;;;;;;;;;;19.60;68.80;;;;;;5011781;28;88187;-47
2023/06/29 11:47:08;;;;;;;;;;;19.60;68.80;;;;;;5010895;28;87141;-43
2023/06/29 11:49:34;;;;;;;;;;;19.50;68.80;;;;;;5012835;28;88963;-45
2023/06/29 11:52:01;;;;;;;;;;;19.60;68.90;;;;;;5010450;28;87339;-43
2023/06/29 11:54:29;;;;;;;;;;;19.60;68.80;;;;;;5009662;28;86975;-43
2023/06/29 11:56:55;;;;;;;;;;;19.60;68.80;;;;;;5009343;28;88817;-43
2023/06/29 11:59:21;;;;;;;;;;;19.60;68.60;;;;;;5009913;28;88253;-43
2023/06/29 12:01:47;;;;;;;;;;;19.70;68.70;;;;;;5015530;28;87172;-44
2023/06/29 12:04:15;;;;;;;;;;;19.60;68.60;;;;;;5009761;28;88012;-45
2023/06/29 12:06:53;;;;;;;;;;;19.70;68.70;;;;;;5011886;28;87683;-44
2023/06/29 12:09:19;;;;;;;;;;;19.70;68.70;;;;;;5011855;28;88891;-45
2023/06/29 12:11:54;;;;;;;;;;;19.70;68.60;;;;;;5012112;28;89223;-45
2023/06/29 12:14:20;;;;;;;;;;;19.80;68.60;;;;;;5016237;28;86360;-46
2023/06/29 12:16:49;;;;;;;;;;;19.70;68.60;;;;;;5013487;28;88219;-44
2023/06/29 12:19:15;;;;;;;;;;;19.80;68.60;;;;;;5014564;28;90718;-46
2023/06/29 12:21:40;;;;;;;;;;;19.80;68.60;;;;;;5013016;28;88145;-47
2023/06/29 12:24:06;;;;;;;;;;;19.80;68.60;;;;;;5017590;28;88690;-45
2023/06/29 12:26:32;;;;;;;;;;;19.80;68.60;;;;;;5011792;28;87270;-44
2023/06/29 12:28:57;;;;;;;;;;;19.80;68.60;;;;;;5012563;28;87323;-46
2023/06/29 12:31:29;;;;;;;;;;;19.80;68.50;;;;;;5014292;28;87184;-43
2023/06/29 12:33:54;;;;;;;;;;;19.90;68.50;;;;;;5013458;28;87169;-46
2023/06/29 12:36:20;;;;;;;;;;;19.90;68.40;;;;;;5015509;28;87489;-47
2023/06/29 12:38:48;;;;;;;;;;;19.90;68.40;;;;;;5013968;28;87343;-44
2023/06/29 12:41:14;;;;;;;;;;;19.90;68.40;;;;;;5012082;28;87753;-43
2023/06/29 12:43:39;;;;;;;;;;;19.90;68.30;;;;;;5017525;28;87573;-43
2023/06/29 12:46:07;;;;;;;;;;;19.90;68.30;;;;;;5013111;28;88081;-45
2023/06/29 12:48:33;;;;;;;;;;;20.00;68.20;;;;;;5014585;28;89874;-43
2023/06/29 12:51:00;;;;;;;;;;;20.00;68.20;;;;;;5013136;28;89489;-42
2023/06/29 12:53:26;;;;;;;;;;;20.00;68.20;;;;;;5014217;28;87067;-43
2023/06/29 12:55:51;;;;;;;;;;;20.00;68.20;;;;;;5014023;28;87094;-45
2023/06/29 12:58:17;;;;;;;;;;;20.00;68.10;;;;;;5011146;28;88243;-43
2023/06/29 13:00:43;;;;;;;;;;;20.00;68.00;;;;;;5012364;28;87514;-42
2023/06/29 13:03:11;;;;;;;;;;;20.10;68.10;;;;;;5015140;28;87399;-44
2023/06/29 13:05:37;;;;;;;;;;;20.10;68.10;;;;;;5016209;28;88082;-42
2023/06/29 13:08:03;;;;;;;;;;;20.10;68.70;;;;;;5014134;28;87959;-43
2023/06/29 13:10:29;;;;;;;;;;;20.10;68.10;;;;;;5012426;28;88578;-42
2023/06/29 13:12:55;;;;;;;;;;;20.10;68.00;;;;;;5010947;28;87118;-43
2023/06/29 13:15:20;;;;;;;;;;;20.10;68.00;;;;;;5014495;28;87584;-43
2023/06/29 13:17:46;;;;;;;;;;;20.20;68.00;;;;;;5012313;28;88083;-43
2023/06/29 13:20:14;;;;;;;;;;;20.20;68.00;;;;;;5015105;28;87634;-42
2023/06/29 13:22:40;;;;;;;;;;;20.20;67.80;;;;;;5012482;28;87373;-43
2023/06/29 13:25:06;;;;;;;;;;;20.20;67.90;;;;;;5014571;28;88254;-43
2023/06/29 13:27:33;;;;;;;;;;;20.30;67.80;;;;;;5014294;28;86677;-43
2023/06/29 13:29:58;;;;;;;;;;;20.30;67.70;;;;;;5011875;28;88620;-45
2023/06/29 13:32:24;;;;;;;;;;;20.30;67.50;;;;;;5014809;28;86955;-43
2023/06/29 13:34:49;;;;;;;;;;;20.30;67.30;;;;;;5010399;28;89028;-42
2023/06/29 13:37:15;;;;;;;;;;;20.40;67.60;;;;;;5006974;28;87919;-44
2023/06/29 13:39:41;;;;;;;;;;;20.30;67.40;;;;;;5014983;28;87178;-43
2023/06/29 13:42:09;;;;;;;;;;;20.40;67.30;;;;;;5012616;28;89203;-42
2023/06/29 13:44:35;;;;;;;;;;;20.40;67.80;;;;;;5010770;28;89449;-43
2023/06/29 13:47:01;;;;;;;;;;;20.50;67.20;;;;;;5014898;28;87254;-43
2023/06/29 13:49:26;;;;;;;;;;;20.50;67.10;;;;;;5013199;28;88935;-44
2023/06/29 13:51:52;;;;;;;;;;;20.50;67.00;;;;;;5015030;28;87383;-43
2023/06/29 13:54:17;;;;;;;;;;;20.60;67.10;;;;;;5012545;28;87039;-43
2023/06/29 13:56:43;;;;;;;;;;;20.60;67.00;;;;;;5012966;28;88052;-43
2023/06/29 13:59:08;;;;;;;;;;;20.60;67.20;;;;;;5012383;28;87950;-43
2023/06/29 14:01:38;;;;;;;;;;;20.60;67.10;;;;;;5012661;28;88465;-43
2023/06/29 14:04:04;;;;;;;;;;;20.60;67.00;;;;;;5013345;28;89288;-43
2023/06/29 14:06:31;;;;;;;;;;;20.70;67.00;;;;;;5012706;28;87078;-44
2023/06/29 14:08:57;;;;;;;;;;;20.70;67.00;;;;;;5013673;28;87351;-43
2023/06/29 14:11:23;;;;;;;;;;;20.70;67.00;;;;;;5015145;28;88138;-43